sensor_id;sensor_type;location;lat;lon;timestamp;P1;durP1;ratioP1;P2;durP2;ratioP2
14007;SDS011;61651;45.508;12.232;2023-04-19T00:00:02;6.53;;;5.93;;
14007;SDS011;61651;45.508;12.232;2023-04-19T00:03:07;7.18;;;6.15;;
14007;SDS011;61651;45.508;12.232;2023-04-19T00:06:11;7.18;;;6.47;;
14007;SDS011;61651;45.508;12.232;2023-04-19T00:09:14;6.38;;;5.78;;
14007;SDS011;61651;45.508;12.232;2023-04-19T00:12:16;6.10;;;5.50;;
14007;SDS011;61651;45.508;12.232;2023-04-19T00:15:18;6.47;;;5.88;;
14007;SDS011;61651;45.508;12.232;2023-04-19T00:18:20;8.60;;;6.13;;
14007;SDS011;61651;45.508;12.232;2023-04-19T00:21:23;7.55;;;5.93;;
14007;SDS011;61651;45.508;12.232;2023-04-19T00:24:25;6.32;;;5.40;;
14007;SDS011;61651;45.508;12.232;2023-04-19T00:27:27;7.13;;;5.97;;
14007;SDS011;61651;45.508;12.232;2023-04-19T00:30:29;7.32;;;5.13;;
14007;SDS011;61651;45.508;12.232;2023-04-19T00:33:31;7.18;;;6.03;;
14007;SDS011;61651;45.508;12.232;2023-04-19T00:36:34;6.88;;;5.78;;
14007;SDS011;61651;45.508;12.232;2023-04-19T00:39:36;7.32;;;6.05;;
14007;SDS011;61651;45.508;12.232;2023-04-19T00:42:38;7.40;;;6.53;;
14007;SDS011;61651;45.508;12.232;2023-04-19T00:45:40;5.95;;;5.32;;
14007;SDS011;61651;45.508;12.232;2023-04-19T00:48:42;5.95;;;5.25;;
14007;SDS011;61651;45.508;12.232;2023-04-19T00:51:46;6.10;;;5.50;;
14007;SDS011;61651;45.508;12.232;2023-04-19T00:54:48;6.35;;;5.22;;
14007;SDS011;61651;45.508;12.232;2023-04-19T00:57:50;6.25;;;5.65;;
14007;SDS011;61651;45.508;12.232;2023-04-19T01:00:52;5.88;;;5.30;;
14007;SDS011;61651;45.508;12.232;2023-04-19T01:03:54;6.10;;;5.50;;
14007;SDS011;61651;45.508;12.232;2023-04-19T01:06:57;5.30;;;4.80;;
14007;SDS011;61651;45.508;12.232;2023-04-19T01:09:59;6.15;;;5.43;;
14007;SDS011;61651;45.508;12.232;2023-04-19T01:13:01;5.97;;;5.43;;
14007;SDS011;61651;45.508;12.232;2023-04-19T01:16:04;6.10;;;5.47;;
14007;SDS011;61651;45.508;12.232;2023-04-19T01:19:07;5.60;;;4.88;;
14007;SDS011;61651;45.508;12.232;2023-04-19T01:25:19;7.20;;;5.20;;
14007;SDS011;61651;45.508;12.232;2023-04-19T01:28:21;5.13;;;4.57;;
14007;SDS011;61651;45.508;12.232;2023-04-19T01:31:23;7.95;;;5.32;;
14007;SDS011;61651;45.508;12.232;2023-04-19T01:34:25;5.47;;;4.97;;
14007;SDS011;61651;45.508;12.232;2023-04-19T01:37:28;5.70;;;5.10;;
14007;SDS011;61651;45.508;12.232;2023-04-19T01:40:30;9.77;;;4.90;;
14007;SDS011;61651;45.508;12.232;2023-04-19T01:43:32;5.72;;;4.65;;
14007;SDS011;61651;45.508;12.232;2023-04-19T01:46:35;5.10;;;4.18;;
14007;SDS011;61651;45.508;12.232;2023-04-19T01:49:37;4.65;;;4.25;;
14007;SDS011;61651;45.508;12.232;2023-04-19T01:52:41;4.60;;;4.18;;
14007;SDS011;61651;45.508;12.232;2023-04-19T01:55:43;4.68;;;4.28;;
14007;SDS011;61651;45.508;12.232;2023-04-19T01:58:45;5.85;;;5.05;;
14007;SDS011;61651;45.508;12.232;2023-04-19T02:01:47;7.15;;;4.88;;
14007;SDS011;61651;45.508;12.232;2023-04-19T02:04:48;7.32;;;4.65;;
14007;SDS011;61651;45.508;12.232;2023-04-19T02:07:52;6.40;;;4.22;;
14007;SDS011;61651;45.508;12.232;2023-04-19T02:10:54;5.53;;;3.88;;
14007;SDS011;61651;45.508;12.232;2023-04-19T02:13:56;4.97;;;4.13;;
14007;SDS011;61651;45.508;12.232;2023-04-19T02:16:58;5.32;;;4.75;;
14007;SDS011;61651;45.508;12.232;2023-04-19T02:20:00;4.47;;;3.92;;
14007;SDS011;61651;45.508;12.232;2023-04-19T02:23:05;4.55;;;3.53;;
14007;SDS011;61651;45.508;12.232;2023-04-19T02:26:06;4.00;;;3.60;;
14007;SDS011;61651;45.508;12.232;2023-04-19T02:29:08;4.38;;;3.70;;
14007;SDS011;61651;45.508;12.232;2023-04-19T02:32:10;4.63;;;4.00;;
14007;SDS011;61651;45.508;12.232;2023-04-19T02:35:12;4.65;;;3.88;;
14007;SDS011;61651;45.508;12.232;2023-04-19T02:38:16;4.28;;;3.88;;
14007;SDS011;61651;45.508;12.232;2023-04-19T02:41:18;4.25;;;3.15;;
14007;SDS011;61651;45.508;12.232;2023-04-19T02:44:20;3.90;;;3.55;;
14007;SDS011;61651;45.508;12.232;2023-04-19T02:47:21;3.92;;;3.50;;
14007;SDS011;61651;45.508;12.232;2023-04-19T02:50:24;4.20;;;3.17;;
14007;SDS011;61651;45.508;12.232;2023-04-19T02:53:28;4.03;;;3.00;;
14007;SDS011;61651;45.508;12.232;2023-04-19T02:56:30;4.85;;;3.33;;
14007;SDS011;61651;45.508;12.232;2023-04-19T02:59:32;2.88;;;2.67;;
14007;SDS011;61651;45.508;12.232;2023-04-19T03:02:34;3.05;;;2.75;;
14007;SDS011;61651;45.508;12.232;2023-04-19T03:05:36;3.50;;;2.45;;
14007;SDS011;61651;45.508;12.232;2023-04-19T03:08:40;2.88;;;2.40;;
14007;SDS011;61651;45.508;12.232;2023-04-19T03:11:42;3.20;;;2.90;;
14007;SDS011;61651;45.508;12.232;2023-04-19T03:14:44;3.45;;;3.00;;
14007;SDS011;61651;45.508;12.232;2023-04-19T03:17:46;3.30;;;2.97;;
14007;SDS011;61651;45.508;12.232;2023-04-19T03:20:48;5.85;;;3.03;;
14007;SDS011;61651;45.508;12.232;2023-04-19T03:23:51;3.40;;;3.10;;
14007;SDS011;61651;45.508;12.232;2023-04-19T03:26:53;5.13;;;3.25;;
14007;SDS011;61651;45.508;12.232;2023-04-19T03:29:55;3.83;;;3.53;;
14007;SDS011;61651;45.508;12.232;2023-04-19T03:32:58;5.15;;;3.90;;
14007;SDS011;61651;45.508;12.232;2023-04-19T03:35:59;3.95;;;3.53;;
14007;SDS011;61651;45.508;12.232;2023-04-19T03:39:03;4.97;;;3.83;;
14007;SDS011;61651;45.508;12.232;2023-04-19T03:42:05;4.18;;;3.50;;
14007;SDS011;61651;45.508;12.232;2023-04-19T03:45:07;3.70;;;3.22;;
14007;SDS011;61651;45.508;12.232;2023-04-19T03:48:10;4.43;;;3.97;;
14007;SDS011;61651;45.508;12.232;2023-04-19T03:51:12;4.10;;;3.70;;
14007;SDS011;61651;45.508;12.232;2023-04-19T03:54:16;6.20;;;3.97;;
14007;SDS011;61651;45.508;12.232;2023-04-19T03:57:18;4.57;;;3.97;;
14007;SDS011;61651;45.508;12.232;2023-04-19T04:00:21;3.90;;;3.50;;
14007;SDS011;61651;45.508;12.232;2023-04-19T04:03:23;6.65;;;4.05;;
14007;SDS011;61651;45.508;12.232;2023-04-19T04:06:25;6.07;;;4.00;;
14007;SDS011;61651;45.508;12.232;2023-04-19T04:09:28;4.15;;;3.58;;
14007;SDS011;61651;45.508;12.232;2023-04-19T04:12:30;4.88;;;3.97;;
14007;SDS011;61651;45.508;12.232;2023-04-19T04:15:32;4.18;;;3.78;;
14007;SDS011;61651;45.508;12.232;2023-04-19T04:18:34;4.30;;;3.90;;
14007;SDS011;61651;45.508;12.232;2023-04-19T04:21:36;4.78;;;3.72;;
14007;SDS011;61651;45.508;12.232;2023-04-19T04:24:40;4.32;;;3.92;;
14007;SDS011;61651;45.508;12.232;2023-04-19T04:27:42;4.88;;;4.38;;
14007;SDS011;61651;45.508;12.232;2023-04-19T04:30:44;5.13;;;4.32;;
14007;SDS011;61651;45.508;12.232;2023-04-19T04:33:46;4.22;;;3.83;;
14007;SDS011;61651;45.508;12.232;2023-04-19T04:36:48;4.50;;;3.78;;
14007;SDS011;61651;45.508;12.232;2023-04-19T04:39:52;4.68;;;4.28;;
14007;SDS011;61651;45.508;12.232;2023-04-19T04:42:53;4.95;;;4.55;;
14007;SDS011;61651;45.508;12.232;2023-04-19T04:45:55;5.00;;;4.20;;
14007;SDS011;61651;45.508;12.232;2023-04-19T04:48:58;7.25;;;4.22;;
14007;SDS011;61651;45.508;12.232;2023-04-19T04:52:00;4.70;;;4.18;;
14007;SDS011;61651;45.508;12.232;2023-04-19T04:55:04;4.31;;;3.87;;
14007;SDS011;61651;45.508;12.232;2023-04-19T04:58:06;4.22;;;3.75;;
14007;SDS011;61651;45.508;12.232;2023-04-19T05:01:08;4.22;;;3.83;;
14007;SDS011;61651;45.508;12.232;2023-04-19T05:04:10;6.07;;;3.65;;
14007;SDS011;61651;45.508;12.232;2023-04-19T05:07:12;3.50;;;3.20;;
14007;SDS011;61651;45.508;12.232;2023-04-19T05:10:15;4.38;;;3.70;;
14007;SDS011;61651;45.508;12.232;2023-04-19T05:13:17;4.70;;;3.50;;
14007;SDS011;61651;45.508;12.232;2023-04-19T05:16:20;3.97;;;3.67;;
14007;SDS011;61651;45.508;12.232;2023-04-19T05:19:22;3.42;;;3.13;;
14007;SDS011;61651;45.508;12.232;2023-04-19T05:22:24;4.22;;;3.83;;
14007;SDS011;61651;45.508;12.232;2023-04-19T05:25:28;3.72;;;3.42;;
14007;SDS011;61651;45.508;12.232;2023-04-19T05:28:30;3.92;;;3.53;;
14007;SDS011;61651;45.508;12.232;2023-04-19T05:31:32;4.53;;;3.60;;
14007;SDS011;61651;45.508;12.232;2023-04-19T05:34:34;4.43;;;3.55;;
14007;SDS011;61651;45.508;12.232;2023-04-19T05:37:37;5.20;;;3.90;;
14007;SDS011;61651;45.508;12.232;2023-04-19T05:40:41;6.93;;;3.42;;
14007;SDS011;61651;45.508;12.232;2023-04-19T05:43:43;9.32;;;3.45;;
14007;SDS011;61651;45.508;12.232;2023-04-19T05:46:45;8.88;;;3.53;;
14007;SDS011;61651;45.508;12.232;2023-04-19T05:49:47;8.45;;;3.65;;
14007;SDS011;61651;45.508;12.232;2023-04-19T05:52:49;3.65;;;3.17;;
14007;SDS011;61651;45.508;12.232;2023-04-19T05:55:53;6.93;;;3.70;;
14007;SDS011;61651;45.508;12.232;2023-04-19T05:58:55;7.82;;;3.53;;
14007;SDS011;61651;45.508;12.232;2023-04-19T06:01:57;9.25;;;3.85;;
14007;SDS011;61651;45.508;12.232;2023-04-19T06:05:00;3.90;;;3.05;;
14007;SDS011;61651;45.508;12.232;2023-04-19T06:08:03;3.00;;;2.70;;
14007;SDS011;61651;45.508;12.232;2023-04-19T06:11:07;3.83;;;2.88;;
14007;SDS011;61651;45.508;12.232;2023-04-19T06:14:09;3.78;;;2.97;;
14007;SDS011;61651;45.508;12.232;2023-04-19T06:17:12;28.90;;;19.75;;
14007;SDS011;61651;45.508;12.232;2023-04-19T06:20:15;58.75;;;42.35;;
14007;SDS011;61651;45.508;12.232;2023-04-19T06:23:17;59.00;;;41.33;;
14007;SDS011;61651;45.508;12.232;2023-04-19T06:26:21;9.63;;;8.45;;
14007;SDS011;61651;45.508;12.232;2023-04-19T06:29:23;5.53;;;4.32;;
14007;SDS011;61651;45.508;12.232;2023-04-19T06:32:25;3.70;;;3.20;;
14007;SDS011;61651;45.508;12.232;2023-04-19T06:35:27;4.28;;;3.88;;
14007;SDS011;61651;45.508;12.232;2023-04-19T06:38:29;4.63;;;4.22;;
14007;SDS011;61651;45.508;12.232;2023-04-19T06:41:32;6.47;;;4.20;;
14007;SDS011;61651;45.508;12.232;2023-04-19T06:44:34;4.88;;;4.13;;
14007;SDS011;61651;45.508;12.232;2023-04-19T06:47:36;5.43;;;4.10;;
14007;SDS011;61651;45.508;12.232;2023-04-19T06:50:38;5.35;;;3.78;;
14007;SDS011;61651;45.508;12.232;2023-04-19T06:53:40;4.78;;;4.20;;
14007;SDS011;61651;45.508;12.232;2023-04-19T06:56:45;4.97;;;4.35;;
14007;SDS011;61651;45.508;12.232;2023-04-19T06:59:48;4.53;;;3.97;;
14007;SDS011;61651;45.508;12.232;2023-04-19T07:02:51;3.75;;;3.38;;
14007;SDS011;61651;45.508;12.232;2023-04-19T07:05:52;3.80;;;3.42;;
14007;SDS011;61651;45.508;12.232;2023-04-19T07:08:55;3.95;;;3.53;;
14007;SDS011;61651;45.508;12.232;2023-04-19T07:11:59;3.70;;;3.40;;
14007;SDS011;61651;45.508;12.232;2023-04-19T07:15:01;3.47;;;3.17;;
14007;SDS011;61651;45.508;12.232;2023-04-19T07:18:03;2.85;;;2.65;;
14007;SDS011;61651;45.508;12.232;2023-04-19T07:21:05;3.72;;;3.42;;
14007;SDS011;61651;45.508;12.232;2023-04-19T07:24:07;4.60;;;3.40;;
14007;SDS011;61651;45.508;12.232;2023-04-19T07:27:10;3.90;;;3.50;;
14007;SDS011;61651;45.508;12.232;2023-04-19T07:30:13;3.60;;;3.00;;
14007;SDS011;61651;45.508;12.232;2023-04-19T07:33:15;2.88;;;2.67;;
14007;SDS011;61651;45.508;12.232;2023-04-19T07:36:17;3.47;;;2.70;;
14007;SDS011;61651;45.508;12.232;2023-04-19T07:39:19;3.10;;;2.80;;
14007;SDS011;61651;45.508;12.232;2023-04-19T07:42:23;3.00;;;2.65;;
14007;SDS011;61651;45.508;12.232;2023-04-19T07:45:25;3.33;;;3.03;;
14007;SDS011;61651;45.508;12.232;2023-04-19T07:48:27;3.30;;;3.00;;
14007;SDS011;61651;45.508;12.232;2023-04-19T07:51:29;4.88;;;3.58;;
14007;SDS011;61651;45.508;12.232;2023-04-19T07:54:31;3.25;;;2.95;;
14007;SDS011;61651;45.508;12.232;2023-04-19T07:57:35;3.65;;;3.30;;
14007;SDS011;61651;45.508;12.232;2023-04-19T08:00:37;2.72;;;2.30;;
14007;SDS011;61651;45.508;12.232;2023-04-19T08:03:39;2.92;;;2.60;;
14007;SDS011;61651;45.508;12.232;2023-04-19T08:06:41;3.72;;;2.92;;
14007;SDS011;61651;45.508;12.232;2023-04-19T08:09:42;3.20;;;2.90;;
14007;SDS011;61651;45.508;12.232;2023-04-19T08:12:46;2.55;;;2.35;;
14007;SDS011;61651;45.508;12.232;2023-04-19T08:15:48;2.97;;;2.63;;
14007;SDS011;61651;45.508;12.232;2023-04-19T08:18:50;3.47;;;2.85;;
14007;SDS011;61651;45.508;12.232;2023-04-19T08:21:52;3.05;;;2.75;;
14007;SDS011;61651;45.508;12.232;2023-04-19T08:24:54;3.00;;;2.55;;
14007;SDS011;61651;45.508;12.232;2023-04-19T08:27:58;2.92;;;2.60;;
14007;SDS011;61651;45.508;12.232;2023-04-19T08:31:00;2.60;;;2.40;;
14007;SDS011;61651;45.508;12.232;2023-04-19T08:34:06;2.50;;;2.30;;
14007;SDS011;61651;45.508;12.232;2023-04-19T08:37:08;2.50;;;2.30;;
14007;SDS011;61651;45.508;12.232;2023-04-19T08:40:10;2.17;;;2.00;;
14007;SDS011;61651;45.508;12.232;2023-04-19T08:43:14;1.88;;;1.77;;
14007;SDS011;61651;45.508;12.232;2023-04-19T08:46:17;2.90;;;1.52;;
14007;SDS011;61651;45.508;12.232;2023-04-19T08:49:19;2.50;;;2.27;;
14007;SDS011;61651;45.508;12.232;2023-04-19T08:52:22;2.63;;;2.38;;
14007;SDS011;61651;45.508;12.232;2023-04-19T08:55:25;2.13;;;1.92;;
14007;SDS011;61651;45.508;12.232;2023-04-19T08:58:29;2.22;;;2.03;;
14007;SDS011;61651;45.508;12.232;2023-04-19T09:01:32;1.85;;;1.75;;
14007;SDS011;61651;45.508;12.232;2023-04-19T09:04:34;1.95;;;1.77;;
14007;SDS011;61651;45.508;12.232;2023-04-19T09:07:35;2.85;;;1.80;;
14007;SDS011;61651;45.508;12.232;2023-04-19T09:10:37;2.15;;;1.95;;
14007;SDS011;61651;45.508;12.232;2023-04-19T09:13:54;2.20;;;1.98;;
14007;SDS011;61651;45.508;12.232;2023-04-19T09:17:10;1.90;;;1.80;;
14007;SDS011;61651;45.508;12.232;2023-04-19T09:20:13;2.03;;;1.83;;
14007;SDS011;61651;45.508;12.232;2023-04-19T09:23:18;2.40;;;1.60;;
14007;SDS011;61651;45.508;12.232;2023-04-19T09:26:20;1.60;;;1.50;;
14007;SDS011;61651;45.508;12.232;2023-04-19T09:29:23;3.95;;;2.00;;
14007;SDS011;61651;45.508;12.232;2023-04-19T09:32:26;2.40;;;2.08;;
14007;SDS011;61651;45.508;12.232;2023-04-19T09:35:38;1.88;;;1.77;;
14007;SDS011;61651;45.508;12.232;2023-04-19T09:38:47;1.90;;;1.80;;
14007;SDS011;61651;45.508;12.232;2023-04-19T09:41:50;4.20;;;2.15;;
14007;SDS011;61651;45.508;12.232;2023-04-19T09:44:57;2.45;;;1.95;;
14007;SDS011;61651;45.508;12.232;2023-04-19T09:47:59;1.90;;;1.80;;
14007;SDS011;61651;45.508;12.232;2023-04-19T09:51:02;1.70;;;1.60;;
14007;SDS011;61651;45.508;12.232;2023-04-19T09:54:05;1.88;;;1.77;;
14007;SDS011;61651;45.508;12.232;2023-04-19T09:57:08;1.75;;;1.65;;
14007;SDS011;61651;45.508;12.232;2023-04-19T10:00:12;2.00;;;1.80;;
14007;SDS011;61651;45.508;12.232;2023-04-19T10:03:15;1.98;;;1.70;;
14007;SDS011;61651;45.508;12.232;2023-04-19T10:06:18;2.17;;;1.98;;
14007;SDS011;61651;45.508;12.232;2023-04-19T10:09:21;1.88;;;1.50;;
14007;SDS011;61651;45.508;12.232;2023-04-19T10:12:25;2.15;;;1.95;;
14007;SDS011;61651;45.508;12.232;2023-04-19T10:15:29;2.10;;;1.85;;
14007;SDS011;61651;45.508;12.232;2023-04-19T10:18:32;2.20;;;1.92;;
14007;SDS011;61651;45.508;12.232;2023-04-19T10:21:35;1.85;;;1.75;;
14007;SDS011;61651;45.508;12.232;2023-04-19T10:24:37;2.20;;;2.00;;
14007;SDS011;61651;45.508;12.232;2023-04-19T10:27:40;2.28;;;2.13;;
14007;SDS011;61651;45.508;12.232;2023-04-19T10:30:52;1.77;;;1.65;;
14007;SDS011;61651;45.508;12.232;2023-04-19T10:33:56;2.65;;;2.10;;
14007;SDS011;61651;45.508;12.232;2023-04-19T10:36:59;2.47;;;2.28;;
14007;SDS011;61651;45.508;12.232;2023-04-19T10:40:05;2.33;;;2.13;;
14007;SDS011;61651;45.508;12.232;2023-04-19T10:43:14;1.98;;;1.80;;
14007;SDS011;61651;45.508;12.232;2023-04-19T10:46:35;2.35;;;1.80;;
14007;SDS011;61651;45.508;12.232;2023-04-19T10:49:43;2.35;;;2.13;;
14007;SDS011;61651;45.508;12.232;2023-04-19T10:52:45;2.70;;;2.45;;
14007;SDS011;61651;45.508;12.232;2023-04-19T10:55:48;2.63;;;2.42;;
14007;SDS011;61651;45.508;12.232;2023-04-19T11:02:27;4.07;;;2.80;;
14007;SDS011;61651;45.508;12.232;2023-04-19T11:05:37;3.35;;;3.05;;
14007;SDS011;61651;45.508;12.232;2023-04-19T11:09:20;2.95;;;2.75;;
14007;SDS011;61651;45.508;12.232;2023-04-19T11:12:23;3.55;;;2.92;;
14007;SDS011;61651;45.508;12.232;2023-04-19T11:15:25;2.58;;;2.38;;
14007;SDS011;61651;45.508;12.232;2023-04-19T11:18:29;2.38;;;2.17;;
14007;SDS011;61651;45.508;12.232;2023-04-19T11:21:31;2.72;;;2.53;;
14007;SDS011;61651;45.508;12.232;2023-04-19T11:24:33;3.03;;;2.70;;
14007;SDS011;61651;45.508;12.232;2023-04-19T11:27:36;3.38;;;2.60;;
14007;SDS011;61651;45.508;12.232;2023-04-19T11:30:38;4.00;;;2.70;;
14007;SDS011;61651;45.508;12.232;2023-04-19T11:33:41;3.00;;;2.63;;
14007;SDS011;61651;45.508;12.232;2023-04-19T11:36:48;3.38;;;2.92;;
14007;SDS011;61651;45.508;12.232;2023-04-19T11:39:50;4.22;;;3.08;;
14007;SDS011;61651;45.508;12.232;2023-04-19T11:42:53;3.42;;;2.88;;
14007;SDS011;61651;45.508;12.232;2023-04-19T11:45:55;3.30;;;3.00;;
14007;SDS011;61651;45.508;12.232;2023-04-19T11:49:07;3.22;;;2.92;;
14007;SDS011;61651;45.508;12.232;2023-04-19T11:52:09;4.55;;;2.80;;
14007;SDS011;61651;45.508;12.232;2023-04-19T11:55:17;2.50;;;2.30;;
14007;SDS011;61651;45.508;12.232;2023-04-19T11:58:24;2.50;;;2.30;;
14007;SDS011;61651;45.508;12.232;2023-04-19T12:01:28;4.47;;;2.58;;
14007;SDS011;61651;45.508;12.232;2023-04-19T12:04:32;2.42;;;2.22;;
14007;SDS011;61651;45.508;12.232;2023-04-19T12:07:34;9.15;;;3.00;;
14007;SDS011;61651;45.508;12.232;2023-04-19T12:10:36;3.28;;;2.88;;
14007;SDS011;61651;45.508;12.232;2023-04-19T12:13:40;4.72;;;2.42;;
14007;SDS011;61651;45.508;12.232;2023-04-19T12:16:43;3.33;;;2.70;;
14007;SDS011;61651;45.508;12.232;2023-04-19T12:19:46;3.78;;;2.58;;
14007;SDS011;61651;45.508;12.232;2023-04-19T12:22:48;3.35;;;2.95;;
14007;SDS011;61651;45.508;12.232;2023-04-19T12:25:50;4.38;;;3.08;;
14007;SDS011;61651;45.508;12.232;2023-04-19T12:28:52;3.13;;;2.58;;
14007;SDS011;61651;45.508;12.232;2023-04-19T12:31:54;6.40;;;2.65;;
14007;SDS011;61651;45.508;12.232;2023-04-19T12:34:58;3.33;;;3.00;;
14007;SDS011;61651;45.508;12.232;2023-04-19T12:38:00;4.25;;;2.88;;
14007;SDS011;61651;45.508;12.232;2023-04-19T12:41:02;3.55;;;2.72;;
14007;SDS011;61651;45.508;12.232;2023-04-19T12:44:04;2.42;;;2.17;;
14007;SDS011;61651;45.508;12.232;2023-04-19T12:47:06;2.40;;;2.10;;
14007;SDS011;61651;45.508;12.232;2023-04-19T12:50:11;2.55;;;2.00;;
14007;SDS011;61651;45.508;12.232;2023-04-19T12:53:13;2.22;;;2.00;;
14007;SDS011;61651;45.508;12.232;2023-04-19T12:56:15;4.32;;;2.20;;
14007;SDS011;61651;45.508;12.232;2023-04-19T12:59:17;2.40;;;2.20;;
14007;SDS011;61651;45.508;12.232;2023-04-19T13:02:21;3.88;;;2.75;;
14007;SDS011;61651;45.508;12.232;2023-04-19T13:05:24;4.03;;;2.38;;
14007;SDS011;61651;45.508;12.232;2023-04-19T13:08:26;3.03;;;2.25;;
14007;SDS011;61651;45.508;12.232;2023-04-19T13:11:28;2.97;;;2.20;;
14007;SDS011;61651;45.508;12.232;2023-04-19T13:14:30;4.60;;;2.50;;
14007;SDS011;61651;45.508;12.232;2023-04-19T13:17:32;10.32;;;2.30;;
14007;SDS011;61651;45.508;12.232;2023-04-19T13:20:37;2.75;;;2.30;;
14007;SDS011;61651;45.508;12.232;2023-04-19T13:23:41;5.93;;;2.90;;
14007;SDS011;61651;45.508;12.232;2023-04-19T13:26:43;4.57;;;2.35;;
14007;SDS011;61651;45.508;12.232;2023-04-19T13:29:46;2.88;;;2.15;;
14007;SDS011;61651;45.508;12.232;2023-04-19T13:32:48;5.68;;;2.13;;
14007;SDS011;61651;45.508;12.232;2023-04-19T13:35:51;4.93;;;2.30;;
14007;SDS011;61651;45.508;12.232;2023-04-19T13:38:53;2.95;;;1.90;;
14007;SDS011;61651;45.508;12.232;2023-04-19T13:41:55;3.58;;;2.40;;
14007;SDS011;61651;45.508;12.232;2023-04-19T13:44:57;8.63;;;2.55;;
14007;SDS011;61651;45.508;12.232;2023-04-19T13:47:59;4.32;;;2.40;;
14007;SDS011;61651;45.508;12.232;2023-04-19T13:51:02;5.78;;;2.33;;
14007;SDS011;61651;45.508;12.232;2023-04-19T13:54:04;2.90;;;2.60;;
14007;SDS011;61651;45.508;12.232;2023-04-19T13:57:06;3.20;;;2.40;;
14007;SDS011;61651;45.508;12.232;2023-04-19T14:00:08;4.78;;;2.85;;
14007;SDS011;61651;45.508;12.232;2023-04-19T14:03:11;2.65;;;2.45;;
14007;SDS011;61651;45.508;12.232;2023-04-19T14:06:14;5.35;;;2.78;;
14007;SDS011;61651;45.508;12.232;2023-04-19T14:09:16;8.30;;;3.15;;
14007;SDS011;61651;45.508;12.232;2023-04-19T14:12:18;3.05;;;2.50;;
14007;SDS011;61651;45.508;12.232;2023-04-19T14:15:20;2.75;;;2.40;;
14007;SDS011;61651;45.508;12.232;2023-04-19T14:18:22;5.60;;;2.72;;
14007;SDS011;61651;45.508;12.232;2023-04-19T14:21:26;3.03;;;2.72;;
14007;SDS011;61651;45.508;12.232;2023-04-19T14:24:28;3.75;;;2.20;;
14007;SDS011;61651;45.508;12.232;2023-04-19T14:27:30;2.67;;;2.20;;
14007;SDS011;61651;45.508;12.232;2023-04-19T14:30:32;2.58;;;2.30;;
14007;SDS011;61651;45.508;12.232;2023-04-19T14:33:34;7.65;;;2.22;;
14007;SDS011;61651;45.508;12.232;2023-04-19T14:36:37;2.20;;;2.00;;
14007;SDS011;61651;45.508;12.232;2023-04-19T14:39:40;3.15;;;2.00;;
14007;SDS011;61651;45.508;12.232;2023-04-19T14:42:42;4.63;;;2.47;;
14007;SDS011;61651;45.508;12.232;2023-04-19T14:45:44;4.00;;;2.20;;
14007;SDS011;61651;45.508;12.232;2023-04-19T14:48:48;5.00;;;2.15;;
14007;SDS011;61651;45.508;12.232;2023-04-19T14:51:52;8.77;;;2.38;;
14007;SDS011;61651;45.508;12.232;2023-04-19T14:54:53;6.18;;;2.40;;
14007;SDS011;61651;45.508;12.232;2023-04-19T14:57:56;4.68;;;2.35;;
14007;SDS011;61651;45.508;12.232;2023-04-19T15:00:58;3.22;;;2.33;;
14007;SDS011;61651;45.508;12.232;2023-04-19T15:04:00;5.65;;;2.53;;
14007;SDS011;61651;45.508;12.232;2023-04-19T15:07:03;2.42;;;2.22;;
14007;SDS011;61651;45.508;12.232;2023-04-19T15:10:06;4.35;;;1.90;;
14007;SDS011;61651;45.508;12.232;2023-04-19T15:13:08;4.43;;;2.10;;
14007;SDS011;61651;45.508;12.232;2023-04-19T15:16:10;4.65;;;2.00;;
14007;SDS011;61651;45.508;12.232;2023-04-19T15:19:12;2.58;;;2.10;;
14007;SDS011;61651;45.508;12.232;2023-04-19T15:22:15;3.40;;;2.53;;
14007;SDS011;61651;45.508;12.232;2023-04-19T15:25:17;3.55;;;1.90;;
14007;SDS011;61651;45.508;12.232;2023-04-19T15:28:19;3.05;;;1.80;;
14007;SDS011;61651;45.508;12.232;2023-04-19T15:31:23;4.35;;;2.13;;
14007;SDS011;61651;45.508;12.232;2023-04-19T15:34:25;4.40;;;2.30;;
14007;SDS011;61651;45.508;12.232;2023-04-19T15:37:28;4.93;;;2.20;;
14007;SDS011;61651;45.508;12.232;2023-04-19T15:40:30;2.45;;;2.25;;
14007;SDS011;61651;45.508;12.232;2023-04-19T15:43:32;2.60;;;2.20;;
14007;SDS011;61651;45.508;12.232;2023-04-19T15:46:34;5.00;;;1.80;;
14007;SDS011;61651;45.508;12.232;2023-04-19T15:49:36;3.65;;;2.22;;
14007;SDS011;61651;45.508;12.232;2023-04-19T15:52:41;4.63;;;2.22;;
14007;SDS011;61651;45.508;12.232;2023-04-19T15:55:42;7.95;;;2.22;;
14007;SDS011;61651;45.508;12.232;2023-04-19T15:58:45;5.07;;;2.65;;
14007;SDS011;61651;45.508;12.232;2023-04-19T16:01:47;4.20;;;2.08;;
14007;SDS011;61651;45.508;12.232;2023-04-19T16:04:49;3.95;;;2.10;;
14007;SDS011;61651;45.508;12.232;2023-04-19T16:08:01;4.20;;;2.40;;
14007;SDS011;61651;45.508;12.232;2023-04-19T16:11:03;5.00;;;2.30;;
14007;SDS011;61651;45.508;12.232;2023-04-19T16:14:05;3.33;;;2.47;;
14007;SDS011;61651;45.508;12.232;2023-04-19T16:17:07;3.80;;;2.50;;
14007;SDS011;61651;45.508;12.232;2023-04-19T16:20:10;4.57;;;2.42;;
14007;SDS011;61651;45.508;12.232;2023-04-19T16:23:14;4.45;;;2.47;;
14007;SDS011;61651;45.508;12.232;2023-04-19T16:26:16;4.10;;;2.80;;
14007;SDS011;61651;45.508;12.232;2023-04-19T16:29:18;2.50;;;2.20;;
14007;SDS011;61651;45.508;12.232;2023-04-19T16:32:20;6.57;;;1.90;;
14007;SDS011;61651;45.508;12.232;2023-04-19T16:35:22;2.60;;;2.20;;
14007;SDS011;61651;45.508;12.232;2023-04-19T16:38:26;4.03;;;2.70;;
14007;SDS011;61651;45.508;12.232;2023-04-19T16:41:28;4.05;;;2.30;;
14007;SDS011;61651;45.508;12.232;2023-04-19T16:44:30;3.60;;;2.60;;
14007;SDS011;61651;45.508;12.232;2023-04-19T16:47:32;3.00;;;2.53;;
14007;SDS011;61651;45.508;12.232;2023-04-19T16:50:34;3.30;;;2.60;;
14007;SDS011;61651;45.508;12.232;2023-04-19T16:53:37;3.65;;;2.80;;
14007;SDS011;61651;45.508;12.232;2023-04-19T16:56:39;4.47;;;2.58;;
14007;SDS011;61651;45.508;12.232;2023-04-19T16:59:41;2.30;;;2.08;;
14007;SDS011;61651;45.508;12.232;2023-04-19T17:02:43;2.80;;;2.55;;
14007;SDS011;61651;45.508;12.232;2023-04-19T17:05:45;3.97;;;2.72;;
14007;SDS011;61651;45.508;12.232;2023-04-19T17:08:48;3.63;;;2.80;;
14007;SDS011;61651;45.508;12.232;2023-04-19T17:11:50;2.95;;;2.70;;
14007;SDS011;61651;45.508;12.232;2023-04-19T17:14:53;2.53;;;2.33;;
14007;SDS011;61651;45.508;12.232;2023-04-19T17:17:55;2.60;;;2.13;;
14007;SDS011;61651;45.508;12.232;2023-04-19T17:20:57;2.42;;;2.22;;
14007;SDS011;61651;45.508;12.232;2023-04-19T17:24:01;2.28;;;2.08;;
14007;SDS011;61651;45.508;12.232;2023-04-19T17:27:03;2.80;;;1.70;;
14007;SDS011;61651;45.508;12.232;2023-04-19T17:30:05;3.53;;;2.05;;
14007;SDS011;61651;45.508;12.232;2023-04-19T17:33:08;2.60;;;2.17;;
14007;SDS011;61651;45.508;12.232;2023-04-19T17:36:10;3.90;;;2.25;;
14007;SDS011;61651;45.508;12.232;2023-04-19T17:39:13;2.55;;;1.85;;
14007;SDS011;61651;45.508;12.232;2023-04-19T17:42:15;2.70;;;2.08;;
14007;SDS011;61651;45.508;12.232;2023-04-19T17:45:17;2.88;;;2.20;;
14007;SDS011;61651;45.508;12.232;2023-04-19T17:48:19;2.67;;;2.47;;
14007;SDS011;61651;45.508;12.232;2023-04-19T17:51:21;3.72;;;2.53;;
14007;SDS011;61651;45.508;12.232;2023-04-19T17:54:24;2.60;;;2.40;;
14007;SDS011;61651;45.508;12.232;2023-04-19T17:57:26;2.33;;;2.13;;
14007;SDS011;61651;45.508;12.232;2023-04-19T18:00:28;2.72;;;2.53;;
14007;SDS011;61651;45.508;12.232;2023-04-19T18:03:30;2.60;;;2.40;;
14007;SDS011;61651;45.508;12.232;2023-04-19T18:06:32;2.35;;;2.15;;
14007;SDS011;61651;45.508;12.232;2023-04-19T18:09:36;3.20;;;2.90;;